Time;durP1;ratioP1;P1;durP2;ratioP2;P2;SDS_P1;SDS_P2;PMS_P1;PMS_P2;Temp;Humidity;BMP_temperature;BMP_pressure;BME280_temperature;BME280_humidity;BME280_pressure;Samples;Min_cycle;Max_cycle;Signal;HPM_P1;HPM_P2
2024/04/16 00:00:02;;;;;;;;;;;;;;;11.40;100.00;100175.94;5251714;27;1207;-68
2024/04/16 00:02:37;;;;;;;;;;;;;;;11.40;100.00;100173.25;5273178;27;1155;-68
2024/04/16 00:05:03;;;;;;;;;;;;;;;11.39;100.00;100182.34;5274416;27;1281;-68
2024/04/16 00:07:28;;;;;;;;;;;;;;;11.41;100.00;100182.91;5264851;27;1869;-68
2024/04/16 00:09:53;;;;;;;;;;;;;;;11.38;100.00;100177.22;5298749;27;1186;-68
2024/04/16 00:12:19;;;;;;;;;;;;;;;11.43;100.00;100182.69;5273915;27;1179;-68
2024/04/16 00:15:04;;;;;;;;;;;;;;;11.40;100.00;100172.41;5251767;27;1179;-68
2024/04/16 00:17:33;;;;;;;;;;;;;;;11.38;100.00;100172.66;5289130;27;1380;-68
2024/04/16 00:19:58;;;;;;;;;;;;;;;11.40;100.00;100175.09;5243955;27;1455;-68
2024/04/16 00:22:23;;;;;;;;;;;;;;;11.35;100.00;100165.09;5270498;27;1206;-68
2024/04/16 00:24:49;;;;;;;;;;;;;;;11.35;100.00;100169.66;5286018;27;1252;-68
2024/04/16 00:27:14;;;;;;;;;;;;;;;11.38;100.00;100153.88;5274373;27;1966;-68
2024/04/16 00:29:40;;;;;;;;;;;;;;;11.36;100.00;100155.19;5268450;27;1288;-68
2024/04/16 00:32:05;;;;;;;;;;;;;;;11.38;100.00;100156.56;5278425;26;1287;-68
2024/04/16 00:34:30;;;;;;;;;;;;;;;11.38;100.00;100147.69;5255270;27;1875;-68
2024/04/16 00:36:56;;;;;;;;;;;;;;;11.35;100.00;100142.81;5252538;27;1226;-68
2024/04/16 00:39:21;;;;;;;;;;;;;;;11.36;100.00;100139.06;5254257;27;1695;-68
2024/04/16 00:41:47;;;;;;;;;;;;;;;11.34;100.00;100139.31;5277486;27;1132;-68
2024/04/16 00:44:12;;;;;;;;;;;;;;;11.33;100.00;100143.03;5254550;27;1197;-68
2024/04/16 00:46:37;;;;;;;;;;;;;;;11.32;100.00;100133.34;5266810;27;1830;-68
2024/04/16 00:49:03;;;;;;;;;;;;;;;11.31;100.00;100126.38;5270990;27;1252;-68
2024/04/16 00:51:28;;;;;;;;;;;;;;;11.32;100.00;100137.91;5265439;27;1343;-68
2024/04/16 00:53:53;;;;;;;;;;;;;;;11.30;100.00;100130.09;5274549;27;1339;-68
2024/04/16 00:56:18;;;;;;;;;;;;;;;11.24;100.00;100123.00;5263456;26;1177;-68
2024/04/16 00:58:45;;;;;;;;;;;;;;;11.25;100.00;100112.03;5279004;27;1066;-68
2024/04/16 01:01:10;;;;;;;;;;;;;;;11.26;100.00;100116.31;5273585;27;1243;-68
2024/04/16 01:03:36;;;;;;;;;;;;;;;11.28;100.00;100108.03;5264431;27;1407;-68
2024/04/16 01:06:01;;;;;;;;;;;;;;;11.25;100.00;100095.94;5270845;27;1158;-68
2024/04/16 01:08:27;;;;;;;;;;;;;;;11.23;100.00;100105.25;5257728;27;1904;-68
2024/04/16 01:10:52;;;;;;;;;;;;;;;11.22;100.00;100093.72;5304422;27;1259;-69
2024/04/16 01:13:17;;;;;;;;;;;;;;;11.19;100.00;100094.19;5245929;26;1336;-69
2024/04/16 01:15:42;;;;;;;;;;;;;;;11.17;100.00;100090.91;5269928;27;1157;-69
2024/04/16 01:18:08;;;;;;;;;;;;;;;11.21;100.00;100097.44;5232784;27;1842;-69
2024/04/16 01:20:33;;;;;;;;;;;;;;;11.17;100.00;100090.13;5240023;27;1288;-69
2024/04/16 01:22:58;;;;;;;;;;;;;;;11.16;100.00;100085.78;5245982;27;1449;-69
2024/04/16 01:25:24;;;;;;;;;;;;;;;11.15;100.00;100085.00;5283280;27;1182;-69
2024/04/16 01:27:49;;;;;;;;;;;;;;;11.18;100.00;100091.72;5231098;27;1834;-69
2024/04/16 01:30:15;;;;;;;;;;;;;;;11.17;100.00;100082.06;5288589;27;1343;-68
2024/04/16 01:32:40;;;;;;;;;;;;;;;11.17;100.00;100077.50;5262879;27;1173;-69
2024/04/16 01:35:05;;;;;;;;;;;;;;;11.20;100.00;100074.34;5270048;27;1382;-69
2024/04/16 01:37:31;;;;;;;;;;;;;;;11.14;100.00;100083.34;5278050;27;1136;-69
2024/04/16 01:39:56;;;;;;;;;;;;;;;11.15;100.00;100087.69;5288705;27;1279;-69
2024/04/16 01:42:21;;;;;;;;;;;;;;;11.11;100.00;100069.63;5257292;27;1141;-69
2024/04/16 01:44:49;;;;;;;;;;;;;;;11.11;100.00;100069.63;5245688;27;1837;-69
2024/04/16 01:47:15;;;;;;;;;;;;;;;11.08;100.00;100077.06;5206343;27;1858;-69
2024/04/16 01:49:40;;;;;;;;;;;;;;;11.07;100.00;100086.19;5206421;27;1326;-69
2024/04/16 01:52:05;;;;;;;;;;;;;;;11.08;100.00;100074.38;5287118;26;1303;-69
2024/04/16 01:54:30;;;;;;;;;;;;;;;11.11;100.00;100065.03;5260759;27;1260;-69
2024/04/16 01:56:56;;;;;;;;;;;;;;;11.08;100.00;100062.84;5273167;27;1099;-69
2024/04/16 01:59:21;;;;;;;;;;;;;;;11.12;100.00;100072.06;5263179;27;1407;-68
2024/04/16 02:01:47;;;;;;;;;;;;;;;11.05;100.00;100087.47;5273132;27;1312;-69
2024/04/16 02:04:12;;;;;;;;;;;;;;;11.10;100.00;100092.94;5267276;27;1214;-68
2024/04/16 02:06:37;;;;;;;;;;;;;;;11.07;100.00;100082.66;5277001;27;1860;-68
2024/04/16 02:09:02;;;;;;;;;;;;;;;10.99;100.00;100075.00;5292255;27;1183;-68
2024/04/16 02:11:28;;;;;;;;;;;;;;;11.01;100.00;100068.34;5263893;27;1229;-68
2024/04/16 02:13:53;;;;;;;;;;;;;;;11.01;100.00;100065.66;5265255;27;1193;-68
2024/04/16 02:16:21;;;;;;;;;;;;;;;10.97;100.00;100072.56;5278279;27;1214;-68
2024/04/16 02:18:47;;;;;;;;;;;;;;;11.01;100.00;100057.59;5263267;27;1621;-68
2024/04/16 02:21:12;;;;;;;;;;;;;;;10.97;100.00;100059.16;5267537;27;1170;-68
2024/04/16 02:23:37;;;;;;;;;;;;;;;10.99;100.00;100049.00;5277145;27;1252;-68
2024/04/16 02:26:02;;;;;;;;;;;;;;;11.00;100.00;100057.84;5286520;27;1243;-68
2024/04/16 02:28:28;;;;;;;;;;;;;;;10.99;100.00;100048.19;5244368;27;2310;-68
2024/04/16 02:30:53;;;;;;;;;;;;;;;10.96;100.00;100032.56;5246665;27;1288;-68
2024/04/16 02:33:18;;;;;;;;;;;;;;;10.95;100.00;100038.97;5273873;26;1304;-68
2024/04/16 02:35:44;;;;;;;;;;;;;;;10.92;100.00;100045.63;5263183;27;1161;-68
2024/04/16 02:38:09;;;;;;;;;;;;;;;10.92;100.00;100034.91;5274454;27;1552;-68
2024/04/16 02:40:35;;;;;;;;;;;;;;;10.92;100.00;100024.16;5267125;27;1326;-68
2024/04/16 02:43:00;;;;;;;;;;;;;;;10.91;100.00;100025.22;5262063;27;1336;-68
2024/04/16 02:45:27;;;;;;;;;;;;;;;10.88;100.00;100025.69;5286866;27;1077;-68
2024/04/16 02:47:52;;;;;;;;;;;;;;;10.90;100.00;100021.72;5223186;27;1850;-68
2024/04/16 02:50:17;;;;;;;;;;;;;;;10.88;100.00;100015.78;5268952;27;1217;-68
2024/04/16 02:52:43;;;;;;;;;;;;;;;10.93;100.00;100012.38;5280449;27;1240;-68
2024/04/16 02:55:08;;;;;;;;;;;;;;;10.90;100.00;100026.28;5235868;27;1304;-68
2024/04/16 02:57:34;;;;;;;;;;;;;;;10.87;100.00;100019.53;5242592;27;1396;-67
2024/04/16 02:59:59;;;;;;;;;;;;;;;10.87;100.00;100029.44;5248292;27;1552;-67
2024/04/16 03:02:24;;;;;;;;;;;;;;;10.89;100.00;100021.97;5270351;27;1289;-67
2024/04/16 03:04:50;;;;;;;;;;;;;;;10.81;100.00;100020.47;5250664;27;1289;-67
2024/04/16 03:07:15;;;;;;;;;;;;;;;10.82;100.00;100026.66;5260417;27;1873;-68
2024/04/16 03:09:40;;;;;;;;;;;;;;;10.85;100.00;100026.16;5280429;27;1373;-68
2024/04/16 03:12:06;;;;;;;;;;;;;;;10.84;100.00;100029.91;5260614;27;1195;-67
2024/04/16 03:14:31;;;;;;;;;;;;;;;10.81;100.00;100035.75;5259788;27;1344;-67
2024/04/16 03:16:56;;;;;;;;;;;;;;;10.85;100.00;100043.09;5276620;27;1352;-67
2024/04/16 03:19:22;;;;;;;;;;;;;;;10.81;100.00;100052.66;5256489;27;1285;-67
2024/04/16 03:21:47;;;;;;;;;;;;;;;10.83;100.00;100045.19;5256683;27;1289;-67
2024/04/16 03:24:12;;;;;;;;;;;;;;;10.79;100.00;100032.47;5266096;27;1430;-66
2024/04/16 03:26:38;;;;;;;;;;;;;;;10.77;100.00;100015.81;5273943;27;1916;-66
2024/04/16 03:29:03;;;;;;;;;;;;;;;10.80;100.00;100034.94;5273635;27;1504;-66
2024/04/16 03:31:28;;;;;;;;;;;;;;;10.78;100.00;100044.25;5263195;27;1394;-66
2024/04/16 03:33:53;;;;;;;;;;;;;;;10.77;100.00;100039.97;5285464;27;1372;-66
2024/04/16 03:36:19;;;;;;;;;;;;;;;10.77;100.00;100035.41;5270242;27;1254;-66
2024/04/16 03:38:44;;;;;;;;;;;;;;;10.74;100.00;100035.88;5269663;27;1507;-66
2024/04/16 03:41:09;;;;;;;;;;;;;;;10.71;100.00;100029.13;5274393;27;1405;-66
2024/04/16 03:43:35;;;;;;;;;;;;;;;10.73;100.00;100013.63;5280793;27;1291;-66
2024/04/16 03:46:00;;;;;;;;;;;;;;;10.76;100.00;100008.81;5282750;27;1364;-66
2024/04/16 03:48:25;;;;;;;;;;;;;;;10.71;100.00;100021.06;5253923;27;1857;-67
2024/04/16 03:50:51;;;;;;;;;;;;;;;10.74;100.00;100012.56;5242230;27;1296;-66
2024/04/16 03:53:17;;;;;;;;;;;;;;;10.71;100.00;100004.97;5248242;27;1614;-66
2024/04/16 03:55:42;;;;;;;;;;;;;;;10.73;100.00;99996.69;5259729;27;1193;-66
2024/04/16 03:58:08;;;;;;;;;;;;;;;10.69;100.00;99985.66;5243756;27;1281;-66
2024/04/16 04:03:17;;;;;;;;;;;;;;;10.70;100.00;99965.00;5279490;27;1185;-66
2024/04/16 04:05:46;;;;;;;;;;;;;;;10.69;100.00;99972.25;5272403;27;1374;-66
2024/04/16 04:08:11;;;;;;;;;;;;;;;10.63;100.00;99961.63;5272009;27;1831;-67
2024/04/16 04:10:37;;;;;;;;;;;;;;;10.66;100.00;99956.63;5297835;26;1330;-66
2024/04/16 04:13:02;;;;;;;;;;;;;;;10.67;100.00;99968.16;5254467;27;1489;-67
2024/04/16 04:15:27;;;;;;;;;;;;;;;10.68;100.00;99954.50;5277258;27;1241;-67
2024/04/16 04:17:53;;;;;;;;;;;;;;;10.67;100.00;99939.50;5289715;26;1389;-66
2024/04/16 04:20:18;;;;;;;;;;;;;;;10.66;100.00;99935.19;5271750;27;1336;-66
2024/04/16 04:22:43;;;;;;;;;;;;;;;10.67;100.00;99933.31;5259120;27;1244;-67
2024/04/16 04:25:09;;;;;;;;;;;;;;;10.65;100.00;99936.22;5277635;27;1189;-67
2024/04/16 04:27:34;;;;;;;;;;;;;;;10.67;100.00;99926.09;5266463;27;1842;-66
2024/04/16 04:29:59;;;;;;;;;;;;;;;10.66;100.00;99924.44;5262065;27;1182;-66
2024/04/16 04:32:25;;;;;;;;;;;;;;;10.63;100.00;99926.78;5254241;27;1529;-66
2024/04/16 04:34:51;;;;;;;;;;;;;;;10.67;100.00;99917.22;5269639;27;1350;-67
2024/04/16 04:37:16;;;;;;;;;;;;;;;10.63;100.00;99921.41;5292157;27;1265;-66
2024/04/16 04:39:41;;;;;;;;;;;;;;;10.59;100.00;99909.56;5266100;27;1271;-68
2024/04/16 04:42:06;;;;;;;;;;;;;;;10.64;100.00;99918.50;5292035;26;1607;-67
2024/04/16 04:44:33;;;;;;;;;;;;;;;10.56;100.00;99895.56;5251746;27;1332;-66
2024/04/16 04:46:58;;;;;;;;;;;;;;;10.57;100.00;99909.81;5282495;27;1865;-66
2024/04/16 04:49:23;;;;;;;;;;;;;;;10.61;100.00;99902.88;5269388;26;1468;-67
2024/04/16 04:51:49;;;;;;;;;;;;;;;10.62;100.00;99899.16;5254026;27;1261;-67
2024/04/16 04:54:14;;;;;;;;;;;;;;;10.60;100.00;99901.28;5258493;27;1458;-67
2024/04/16 04:56:39;;;;;;;;;;;;;;;10.60;100.00;99906.66;5271962;26;1393;-67
2024/04/16 04:59:05;;;;;;;;;;;;;;;10.59;100.00;99896.97;5285776;26;1413;-66
2024/04/16 05:01:30;;;;;;;;;;;;;;;10.56;100.00;99892.09;5287478;26;1448;-66
2024/04/16 05:03:55;;;;;;;;;;;;;;;10.56;100.00;99884.03;5252602;27;1490;-66
2024/04/16 05:06:20;;;;;;;;;;;;;;;10.61;100.00;99877.97;5251376;27;1867;-66
2024/04/16 05:08:46;;;;;;;;;;;;;;;10.60;100.00;99865.59;5256632;27;1421;-66
2024/04/16 05:11:11;;;;;;;;;;;;;;;10.57;100.00;99866.91;5250423;27;1678;-67
2024/04/16 05:13:36;;;;;;;;;;;;;;;10.53;100.00;99863.88;5285710;26;1304;-66
2024/04/16 05:16:01;;;;;;;;;;;;;;;10.56;100.00;99851.88;5263913;27;1382;-66
2024/04/16 05:18:27;;;;;;;;;;;;;;;10.56;100.00;99855.34;5255998;27;1432;-66
2024/04/16 05:20:53;;;;;;;;;;;;;;;10.59;100.00;99858.63;5263369;27;1516;-66
2024/04/16 05:23:18;;;;;;;;;;;;;;;10.54;100.00;99849.44;5258982;27;1277;-66
2024/04/16 05:25:53;;;;;;;;;;;;;;;10.54;100.00;99843.28;5257574;27;1577;-67
2024/04/16 05:28:18;;;;;;;;;;;;;;;10.55;100.00;99842.19;5267080;27;1860;-66
2024/04/16 05:30:43;;;;;;;;;;;;;;;10.53;100.00;99837.06;5264672;27;1655;-66
2024/04/16 05:33:09;;;;;;;;;;;;;;;10.53;100.00;99836.28;5267956;27;1477;-67
2024/04/16 05:35:34;;;;;;;;;;;;;;;10.49;100.00;99840.47;5249786;27;1603;-67
2024/04/16 05:37:59;;;;;;;;;;;;;;;10.58;100.00;99839.03;5271925;26;1597;-67
2024/04/16 05:40:25;;;;;;;;;;;;;;;10.46;100.00;99823.00;5281010;26;1499;-68
2024/04/16 05:42:50;;;;;;;;;;;;;;;10.51;100.00;99836.50;5265859;27;1493;-68
2024/04/16 05:45:16;;;;;;;;;;;;;;;10.48;100.00;99828.13;5246478;27;1469;-68
2024/04/16 05:47:41;;;;;;;;;;;;;;;10.49;100.00;99827.06;5269687;27;1826;-68
2024/04/16 05:50:07;;;;;;;;;;;;;;;10.47;100.00;99831.88;5257889;27;1298;-67
2024/04/16 05:52:32;;;;;;;;;;;;;;;10.45;100.00;99836.66;5264267;27;1355;-68
2024/04/16 05:54:58;;;;;;;;;;;;;;;10.44;100.00;99835.03;5259830;27;1480;-67
2024/04/16 05:57:23;;;;;;;;;;;;;;;10.42;100.00;99831.75;5278177;27;1455;-68
2024/04/16 05:59:48;;;;;;;;;;;;;;;10.43;100.00;99806.59;5274053;27;1181;-67
2024/04/16 06:02:14;;;;;;;;;;;;;;;10.45;100.00;99801.81;5266333;27;1223;-67
2024/04/16 06:04:39;;;;;;;;;;;;;;;10.42;100.00;99802.28;5224278;27;1386;-68
2024/04/16 06:07:04;;;;;;;;;;;;;;;10.42;100.00;99791.56;5276091;27;1846;-67
2024/04/16 06:09:30;;;;;;;;;;;;;;;10.38;100.00;99785.88;5270855;27;1552;-67
2024/04/16 06:11:55;;;;;;;;;;;;;;;10.37;100.00;99793.09;5274570;27;1359;-67
2024/04/16 06:14:20;;;;;;;;;;;;;;;10.36;100.00;99763.84;5272229;27;1166;-67
2024/04/16 06:16:45;;;;;;;;;;;;;;;10.38;100.00;99792.03;5251761;27;1193;-67
2024/04/16 06:19:11;;;;;;;;;;;;;;;10.40;100.00;99807.09;5265934;27;1321;-66
2024/04/16 06:21:36;;;;;;;;;;;;;;;10.38;100.00;99799.28;5257701;27;1289;-67
2024/04/16 06:24:01;;;;;;;;;;;;;;;10.35;100.00;99805.94;5263616;27;1575;-67
2024/04/16 06:26:27;;;;;;;;;;;;;;;10.35;100.00;99800.56;5277005;26;1826;-67
2024/04/16 06:28:52;;;;;;;;;;;;;;;10.37;100.00;99797.66;5252604;27;1336;-66
2024/04/16 06:31:17;;;;;;;;;;;;;;;10.41;100.00;99785.41;5278879;26;1387;-66
2024/04/16 06:33:42;;;;;;;;;;;;;;;10.41;100.00;99782.72;5260042;27;1464;-66
2024/04/16 06:36:08;;;;;;;;;;;;;;;10.36;100.00;99782.59;5284797;26;1394;-66
2024/04/16 06:38:33;;;;;;;;;;;;;;;10.38;100.00;99775.97;5279781;27;1324;-66
2024/04/16 06:41:01;;;;;;;;;;;;;;;10.37;100.00;99785.06;5269415;27;1333;-66
2024/04/16 06:43:26;;;;;;;;;;;;;;;10.38;100.00;99778.66;5240058;27;1362;-66
2024/04/16 06:45:52;;;;;;;;;;;;;;;10.40;100.00;99785.63;5286514;26;1430;-66
2024/04/16 06:48:17;;;;;;;;;;;;;;;10.40;100.00;99783.75;5274525;27;1870;-66
2024/04/16 06:50:46;;;;;;;;;;;;;;;10.39;100.00;99792.84;5239338;27;1414;-66
2024/04/16 06:53:11;;;;;;;;;;;;;;;10.45;100.00;99799.13;5244810;27;1302;-66
2024/04/16 06:55:37;;;;;;;;;;;;;;;10.44;100.00;99787.59;5266691;27;1443;-66
2024/04/16 06:58:02;;;;;;;;;;;;;;;10.50;100.00;99800.03;5267502;27;1328;-66
2024/04/16 07:00:28;;;;;;;;;;;;;;;10.49;100.00;99802.94;5260985;27;1371;-66
2024/04/16 07:02:53;;;;;;;;;;;;;;;10.49;100.00;99797.59;5272530;27;1397;-66
2024/04/16 07:05:18;;;;;;;;;;;;;;;10.60;100.00;99811.97;5286531;27;1504;-66
2024/04/16 07:07:43;;;;;;;;;;;;;;;10.54;100.00;99800.38;5273804;27;1857;-66
2024/04/16 07:10:09;;;;;;;;;;;;;;;10.63;100.00;99804.28;5292718;27;1356;-65
2024/04/16 07:12:34;;;;;;;;;;;;;;;10.74;100.00;99795.34;5277583;27;1518;-65
2024/04/16 07:14:59;;;;;;;;;;;;;;;10.90;100.00;99799.09;5277927;26;1397;-66
2024/04/16 07:17:25;;;;;;;;;;;;;;;10.94;100.00;99799.44;5276091;27;1201;-67
2024/04/16 07:19:50;;;;;;;;;;;;;;;10.96;100.00;99799.97;5265375;27;1326;-66
2024/04/16 07:22:15;;;;;;;;;;;;;;;10.90;100.00;99803.66;5289218;27;1582;-66
2024/04/16 07:24:41;;;;;;;;;;;;;;;10.97;100.00;99806.97;5258408;27;1313;-66
2024/04/16 07:27:06;;;;;;;;;;;;;;;10.88;100.00;99832.56;5243580;27;1839;-66
2024/04/16 07:29:31;;;;;;;;;;;;;;;10.85;100.00;99808.91;5293013;27;1402;-67
2024/04/16 07:31:57;;;;;;;;;;;;;;;10.84;100.00;99815.34;5271454;27;1370;-66
2024/04/16 07:34:22;;;;;;;;;;;;;;;10.86;100.00;99816.72;5278885;26;1557;-67
2024/04/16 07:36:47;;;;;;;;;;;;;;;10.83;100.00;99814.53;5273153;27;1381;-67
2024/04/16 07:39:13;;;;;;;;;;;;;;;10.84;100.00;99831.44;5283064;27;1499;-66
2024/04/16 07:41:38;;;;;;;;;;;;;;;10.83;100.00;99829.81;5277264;27;1330;-67
2024/04/16 07:44:03;;;;;;;;;;;;;;;10.86;100.00;99834.69;5267433;27;1238;-67
2024/04/16 07:46:29;;;;;;;;;;;;;;;10.85;100.00;99828.53;5269576;27;1864;-67
2024/04/16 07:48:54;;;;;;;;;;;;;;;10.83;100.00;99840.53;5288997;26;1357;-66
2024/04/16 07:51:19;;;;;;;;;;;;;;;10.86;100.00;99837.38;5287742;27;1316;-67
2024/04/16 07:53:45;;;;;;;;;;;;;;;10.83;100.00;99846.72;5286940;27;1563;-67
2024/04/16 07:56:10;;;;;;;;;;;;;;;10.90;100.00;99863.47;5256684;27;1324;-66
2024/04/16 07:58:35;;;;;;;;;;;;;;;10.85;100.00;99854.50;5265090;26;1520;-67
2024/04/16 08:01:00;;;;;;;;;;;;;;;10.86;100.00;99846.22;5268823;27;1345;-66
2024/04/16 08:03:26;;;;;;;;;;;;;;;10.90;100.00;99843.88;5256903;27;1203;-67
2024/04/16 08:05:51;;;;;;;;;;;;;;;10.90;100.00;99846.56;5278060;27;1333;-67
2024/04/16 08:08:16;;;;;;;;;;;;;;;10.80;100.00;99843.72;5280164;26;1846;-67
2024/04/16 08:10:42;;;;;;;;;;;;;;;10.82;100.00;99852.31;5289481;27;1284;-67
2024/04/16 08:13:07;;;;;;;;;;;;;;;10.83;100.00;99865.47;5241776;27;1548;-67
2024/04/16 08:15:32;;;;;;;;;;;;;;;10.80;100.00;99865.16;5283848;27;1375;-66
2024/04/16 08:17:58;;;;;;;;;;;;;;;10.84;100.00;99852.91;5268815;27;1337;-67
2024/04/16 08:20:23;;;;;;;;;;;;;;;10.82;100.00;99868.41;5252313;27;1293;-67
2024/04/16 08:22:48;;;;;;;;;;;;;;;10.84;100.00;99869.81;5253967;27;1344;-67
2024/04/16 08:25:13;;;;;;;;;;;;;;;10.86;100.00;99867.69;5260303;27;1231;-69
2024/04/16 08:27:39;;;;;;;;;;;;;;;10.84;100.00;99874.34;5253023;27;1835;-67
2024/04/16 08:30:04;;;;;;;;;;;;;;;10.92;100.00;99876.63;5264308;27;1519;-67
2024/04/16 08:32:30;;;;;;;;;;;;;;;10.97;100.00;99889.31;5262378;27;1297;-67
2024/04/16 08:34:55;;;;;;;;;;;;;;;10.93;100.00;99893.56;5266644;27;1407;-67
2024/04/16 08:37:20;;;;;;;;;;;;;;;10.92;100.00;99890.03;5245101;27;1565;-67
2024/04/16 08:39:45;;;;;;;;;;;;;;;10.94;100.00;99885.28;5273589;27;1513;-67
2024/04/16 08:42:11;;;;;;;;;;;;;;;10.94;100.00;99884.44;5234247;27;1475;-67
2024/04/16 08:44:37;;;;;;;;;;;;;;;10.93;100.00;99893.56;5247073;27;1349;-67
2024/04/16 08:47:02;;;;;;;;;;;;;;;10.90;100.00;99892.97;5284425;26;1841;-67
2024/04/16 08:49:30;;;;;;;;;;;;;;;10.93;100.00;99906.97;5271929;27;1474;-67
2024/04/16 08:51:56;;;;;;;;;;;;;;;10.96;100.00;99901.94;5261603;27;1313;-67
2024/04/16 08:54:21;;;;;;;;;;;;;;;10.96;100.00;99915.34;5247034;27;1654;-67
2024/04/16 08:56:47;;;;;;;;;;;;;;;10.94;100.00;99930.88;5274430;26;1653;-67
2024/04/16 08:59:15;;;;;;;;;;;;;;;10.97;100.00;99929.56;5287827;26;1373;-68
2024/04/16 09:01:49;;;;;;;;;;;;;;;10.93;100.00;99936.47;5248086;27;1203;-67
2024/04/16 09:04:17;;;;;;;;;;;;;;;10.96;100.00;99942.16;5290905;26;1328;-68
2024/04/16 09:06:47;;;;;;;;;;;;;;;10.97;100.00;99946.47;5248560;27;1830;-68
2024/04/16 09:09:12;;;;;;;;;;;;;;;10.98;100.00;99961.50;5249578;27;1512;-67
2024/04/16 09:11:37;;;;;;;;;;;;;;;10.97;100.00;99978.66;5258376;27;1282;-67
2024/04/16 09:14:03;;;;;;;;;;;;;;;11.00;100.00;99990.78;5263605;27;1208;-67
2024/04/16 09:16:28;;;;;;;;;;;;;;;10.96;100.00;99995.81;5282279;27;1176;-67
2024/04/16 09:19:04;;;;;;;;;;;;;;;10.89;100.00;99998.63;5275758;27;1355;-66
2024/04/16 09:21:29;;;;;;;;;;;;;;;10.94;100.00;100000.63;5260522;27;1532;-67
2024/04/16 09:23:55;;;;;;;;;;;;;;;10.91;100.00;100015.31;5264696;27;1600;-68
2024/04/16 09:26:20;;;;;;;;;;;;;;;10.95;100.00;100009.47;5280822;27;1388;-67
2024/04/16 09:28:46;;;;;;;;;;;;;;;10.91;100.00;100017.16;5286027;27;1861;-66
2024/04/16 09:31:14;;;;;;;;;;;;;;;10.93;100.00;100027.69;5291713;26;1393;-67
2024/04/16 09:33:39;;;;;;;;;;;;;;;10.98;100.00;100020.53;5275319;27;1393;-66
2024/04/16 09:36:10;;;;;;;;;;;;;;;10.97;100.00;100028.81;5271176;27;1375;-66
2024/04/16 09:38:45;;;;;;;;;;;;;;;10.98;100.00;100035.81;5267870;27;1577;-67
2024/04/16 09:41:11;;;;;;;;;;;;;;;10.99;100.00;100043.63;5259756;27;1390;-66
2024/04/16 09:43:37;;;;;;;;;;;;;;;11.00;100.00;100058.69;5292258;26;1365;-67
2024/04/16 09:46:02;;;;;;;;;;;;;;;11.05;100.00;100063.31;5285168;27;1633;-66
2024/04/16 09:48:28;;;;;;;;;;;;;;;11.07;100.00;100063.88;5271760;27;1833;-66
2024/04/16 09:50:53;;;;;;;;;;;;;;;11.13;100.00;100064.81;5243576;27;1391;-66
2024/04/16 09:53:19;;;;;;;;;;;;;;;11.18;100.00;100070.25;5261025;26;1494;-66
2024/04/16 09:55:44;;;;;;;;;;;;;;;11.21;100.00;100062.56;5242554;27;1481;-66
2024/04/16 09:58:09;;;;;;;;;;;;;;;11.24;100.00;100070.13;5283397;26;1531;-66
2024/04/16 10:00:34;;;;;;;;;;;;;;;11.31;100.00;100067.31;5261357;27;1404;-66
2024/04/16 10:03:00;;;;;;;;;;;;;;;11.39;100.00;100072.28;5273258;27;1486;-67
2024/04/16 10:05:25;;;;;;;;;;;;;;;11.41;100.00;100070.16;5273143;27;1315;-67
2024/04/16 10:07:50;;;;;;;;;;;;;;;11.49;100.00;100078.88;5275034;27;1833;-67
2024/04/16 10:10:15;;;;;;;;;;;;;;;11.57;100.00;100073.13;5274872;27;1206;-67
2024/04/16 10:12:41;;;;;;;;;;;;;;;11.68;100.00;100082.97;5270509;27;1421;-67
2024/04/16 10:15:07;;;;;;;;;;;;;;;11.77;100.00;100084.25;5290453;27;1550;-67
2024/04/16 10:17:32;;;;;;;;;;;;;;;11.95;100.00;100090.44;5283741;27;1232;-67
2024/04/16 10:19:58;;;;;;;;;;;;;;;11.96;100.00;100097.47;5277702;27;1466;-67
2024/04/16 10:22:23;;;;;;;;;;;;;;;11.99;100.00;100102.34;5272642;27;1455;-67
2024/04/16 10:24:52;;;;;;;;;;;;;;;11.99;100.00;100114.97;5276123;27;1462;-67
2024/04/16 10:27:19;;;;;;;;;;;;;;;11.91;100.00;100108.91;5270729;27;1849;-67
2024/04/16 10:29:45;;;;;;;;;;;;;;;11.90;100.00;100112.66;5277923;27;1335;-67
2024/04/16 10:32:10;;;;;;;;;;;;;;;11.95;100.00;100114.63;5265878;27;1241;-67
2024/04/16 10:34:39;;;;;;;;;;;;;;;11.95;100.00;100122.69;5268802;27;2204;-67
2024/04/16 10:37:05;;;;;;;;;;;;;;;11.96;100.00;100117.09;5257385;27;1357;-67
2024/04/16 10:39:33;;;;;;;;;;;;;;;11.96;100.00;100129.69;5250297;27;1257;-67
2024/04/16 10:41:59;;;;;;;;;;;;;;;12.00;100.00;100127.38;5267558;27;1257;-67
2024/04/16 10:44:24;;;;;;;;;;;;;;;11.98;100.00;100119.53;5263882;27;1293;-67
2024/04/16 10:46:50;;;;;;;;;;;;;;;12.02;100.00;100141.34;5272724;27;1826;-68
2024/04/16 10:49:15;;;;;;;;;;;;;;;12.02;100.00;100136.78;5269150;27;1347;-67
2024/04/16 10:51:40;;;;;;;;;;;;;;;12.00;100.00;100132.75;5253341;27;1129;-68
2024/04/16 10:54:07;;;;;;;;;;;;;;;11.99;100.00;100139.97;5274806;27;1394;-68
2024/04/16 10:56:35;;;;;;;;;;;;;;;11.99;100.00;100141.84;5284824;27;1401;-69
2024/04/16 10:59:04;;;;;;;;;;;;;;;12.06;100.00;100142.50;5271720;27;1384;-65
2024/04/16 11:01:29;;;;;;;;;;;;;;;12.12;100.00;100146.91;5271118;27;1293;-68
2024/04/16 11:03:55;;;;;;;;;;;;;;;12.21;100.00;100144.63;5257951;27;1300;-68
2024/04/16 11:06:20;;;;;;;;;;;;;;;12.14;100.00;100159.06;5267947;27;1275;-68
2024/04/16 11:08:45;;;;;;;;;;;;;;;12.12;100.00;100163.03;5277689;27;1866;-68
2024/04/16 11:11:10;;;;;;;;;;;;;;;12.11;100.00;100162.22;5270160;27;1463;-68
2024/04/16 11:13:36;;;;;;;;;;;;;;;12.08;100.00;100167.25;5292683;26;1578;-68
2024/04/16 11:16:01;;;;;;;;;;;;;;;12.06;100.00;100169.38;5246578;27;1532;-67
2024/04/16 11:18:30;;;;;;;;;;;;;;;12.12;100.00;100181.84;5264548;27;1483;-68
2024/04/16 11:20:55;;;;;;;;;;;;;;;12.16;100.00;100169.56;5264882;27;1456;-68
2024/04/16 11:23:21;;;;;;;;;;;;;;;12.15;100.00;100181.34;5259620;27;1253;-68
2024/04/16 11:25:47;;;;;;;;;;;;;;;12.21;100.00;100187.63;5271517;27;1401;-67
2024/04/16 11:28:13;;;;;;;;;;;;;;;12.22;100.00;100181.22;5274226;27;1835;-67
2024/04/16 11:30:39;;;;;;;;;;;;;;;12.22;100.00;100195.47;5271199;27;1458;-68
2024/04/16 11:33:05;;;;;;;;;;;;;;;12.23;100.00;100191.72;5273440;27;1315;-68
2024/04/16 11:35:31;;;;;;;;;;;;;;;12.24;100.00;100209.47;5265133;27;1346;-68
2024/04/16 11:37:56;;;;;;;;;;;;;;;12.25;100.00;100199.53;5269321;27;1335;-67
2024/04/16 11:40:22;;;;;;;;;;;;;;;12.06;100.00;100204.31;5279601;27;1394;-67
2024/04/16 11:42:47;;;;;;;;;;;;;;;12.21;100.00;100204.56;5271576;27;1592;-67
2024/04/16 11:45:13;;;;;;;;;;;;;;;12.24;100.00;100219.41;5295002;27;1296;-68
2024/04/16 11:47:38;;;;;;;;;;;;;;;12.28;100.00;100215.19;5270398;27;1854;-68
2024/04/16 11:50:03;;;;;;;;;;;;;;;12.31;100.00;100230.81;5274533;27;1456;-68
2024/04/16 11:52:29;;;;;;;;;;;;;;;12.29;100.00;100228.38;5268051;27;1267;-68
2024/04/16 11:54:54;;;;;;;;;;;;;;;12.27;100.00;100243.13;5258103;27;1356;-68
2024/04/16 11:57:19;;;;;;;;;;;;;;;12.26;100.00;100250.38;5241586;27;1576;-70
2024/04/16 11:59:47;;;;;;;;;;;;;;;12.31;100.00;100252.34;5262581;27;1522;-68
2024/04/16 12:02:12;;;;;;;;;;;;;;;12.23;100.00;100260.78;5254604;27;1477;-68
2024/04/16 12:04:41;;;;;;;;;;;;;;;12.30;100.00;100261.44;5253644;27;1480;-68
2024/04/16 12:07:06;;;;;;;;;;;;;;;12.28;100.00;100266.25;5264197;27;1861;-68
2024/04/16 12:09:31;;;;;;;;;;;;;;;12.28;100.00;100258.19;5247151;27;1357;-68
2024/04/16 12:11:57;;;;;;;;;;;;;;;12.31;100.00;100261.22;5273385;27;1581;-68
2024/04/16 12:14:22;;;;;;;;;;;;;;;12.35;100.00;100263.41;5251578;27;1367;-68
2024/04/16 12:16:47;;;;;;;;;;;;;;;12.37;100.00;100269.38;5268522;27;1343;-68
2024/04/16 12:19:13;;;;;;;;;;;;;;;12.40;100.00;100266.19;5268874;27;1514;-68
2024/04/16 12:21:38;;;;;;;;;;;;;;;12.44;100.00;100267.31;5279607;26;1491;-69
2024/04/16 12:24:03;;;;;;;;;;;;;;;12.51;100.00;100268.00;5270732;27;1379;-68
2024/04/16 12:26:29;;;;;;;;;;;;;;;12.47;100.00;100277.63;5253008;27;1845;-68
2024/04/16 12:28:58;;;;;;;;;;;;;;;12.46;100.00;100301.00;5271610;27;1413;-68
2024/04/16 12:31:24;;;;;;;;;;;;;;;12.46;100.00;100325.19;5259789;27;1417;-68
2024/04/16 12:33:49;;;;;;;;;;;;;;;12.45;100.00;100328.13;5299377;26;1222;-67